createdAt,value
2023-01-19T00:00:20.979Z,4.67
2023-01-19T00:02:55.261Z,4.60
2023-01-19T00:05:36.251Z,4.71
2023-01-19T00:08:22.075Z,4.62
2023-01-19T00:11:03.763Z,4.54
2023-01-19T00:13:33.032Z,4.47
2023-01-19T00:16:06.078Z,4.38
2023-01-19T00:18:37.321Z,4.40
2023-01-19T00:21:11.669Z,4.30
2023-01-19T00:29:48.627Z,4.01
2023-01-19T00:32:26.556Z,4.07
2023-01-19T00:35:02.932Z,4.02
2023-01-19T00:37:49.702Z,4.04
2023-01-19T00:40:20.453Z,3.91
2023-01-19T00:42:49.866Z,4.09
2023-01-19T00:45:21.683Z,4.01
2023-01-19T00:47:57.115Z,4.04
2023-01-19T00:50:34.875Z,4.02
2023-01-19T00:53:08.732Z,4.21
2023-01-19T00:55:47.813Z,4.24
2023-01-19T00:58:30.043Z,4.01
2023-01-19T01:01:13.113Z,4.03
2023-01-19T01:03:42.454Z,3.98
2023-01-19T01:12:16.885Z,3.88
2023-01-19T01:14:46.405Z,4.06
2023-01-19T01:17:27.063Z,3.69
2023-01-19T01:20:02.387Z,3.96
2023-01-19T01:22:31.240Z,3.87
2023-01-19T01:25:03.653Z,4.12
2023-01-19T01:40:52.571Z,4.02
2023-01-19T01:43:25.629Z,3.95
2023-01-19T01:45:56.072Z,3.91
2023-01-19T01:48:30.770Z,3.84
2023-01-19T01:57:08.217Z,3.87
2023-01-19T02:03:00.322Z,3.77
2023-01-19T02:05:34.010Z,3.80
2023-01-19T02:14:28.892Z,4.07
2023-01-19T02:16:58.044Z,3.81
2023-01-19T02:19:36.583Z,3.86
2023-01-19T02:22:13.840Z,4.01
2023-01-19T02:24:56.953Z,3.97
2023-01-19T02:27:29.488Z,3.93
2023-01-19T02:30:06.075Z,4.00
2023-01-19T02:32:35.673Z,4.00
2023-01-19T02:35:10.247Z,4.04
2023-01-19T02:37:48.808Z,4.05
2023-01-19T02:40:28.129Z,3.79
2023-01-19T02:43:04.103Z,3.88
2023-01-19T02:45:33.781Z,4.09
2023-01-19T02:48:04.997Z,4.07
2023-01-19T02:50:49.094Z,4.07
2023-01-19T02:53:57.292Z,4.09
2023-01-19T02:56:50.035Z,4.10
2023-01-19T02:59:31.574Z,4.17
2023-01-19T03:02:13.026Z,4.11
2023-01-19T03:05:08.040Z,4.11
2023-01-19T03:07:50.673Z,4.01
2023-01-19T03:10:30.416Z,4.16
2023-01-19T03:13:07.431Z,4.24
2023-01-19T03:15:42.000Z,4.26
2023-01-19T03:18:18.828Z,4.20
2023-01-19T03:20:55.107Z,4.19
2023-01-19T03:23:30.519Z,4.28
2023-01-19T03:26:04.651Z,4.38
2023-01-19T03:28:35.940Z,4.31
2023-01-19T03:31:18.784Z,4.43
2023-01-19T03:33:53.987Z,4.21
2023-01-19T03:36:31.679Z,4.49
2023-01-19T03:39:01.771Z,4.39
2023-01-19T03:41:34.231Z,4.29
2023-01-19T03:44:06.357Z,4.23
2023-01-19T03:46:43.460Z,4.28
2023-01-19T03:49:12.669Z,4.25
2023-01-19T03:51:42.117Z,4.29
2023-01-19T03:54:20.806Z,4.39
2023-01-19T03:56:58.185Z,4.24
2023-01-19T03:59:30.902Z,4.18
2023-01-19T04:02:01.421Z,4.41
2023-01-19T04:04:30.835Z,4.19
2023-01-19T04:07:08.699Z,4.20
2023-01-19T04:09:42.857Z,4.29
2023-01-19T04:12:14.499Z,4.33
2023-01-19T04:14:45.248Z,4.29
2023-01-19T04:17:17.016Z,4.35
2023-01-19T04:19:48.944Z,4.48
2023-01-19T04:22:20.939Z,4.41
2023-01-19T04:24:55.702Z,4.56
2023-01-19T04:27:29.583Z,4.54
2023-01-19T04:30:14.186Z,4.28
2023-01-19T04:32:51.782Z,4.02
2023-01-19T04:35:22.273Z,4.27
2023-01-19T04:37:54.473Z,4.28
2023-01-19T04:40:25.286Z,4.27
2023-01-19T04:42:58.839Z,4.14
2023-01-19T04:45:31.678Z,4.30
2023-01-19T04:48:00.914Z,4.21
2023-01-19T04:50:32.361Z,4.03
2023-01-19T04:53:02.733Z,4.11
2023-01-19T04:55:32.352Z,4.11
2023-01-19T04:58:06.942Z,4.15
2023-01-19T05:00:42.188Z,3.84
2023-01-19T05:03:11.812Z,4.12
2023-01-19T05:05:42.914Z,4.08
2023-01-19T05:08:15.026Z,4.18
2023-01-19T05:10:46.108Z,4.04
2023-01-19T05:13:16.429Z,4.37
2023-01-19T05:15:50.434Z,3.99
2023-01-19T05:18:20.642Z,4.15
2023-01-19T05:21:00.201Z,4.00
2023-01-19T05:23:31.161Z,4.12
2023-01-19T05:26:10.280Z,4.19
2023-01-19T05:28:45.551Z,4.21
2023-01-19T05:31:30.321Z,4.01
2023-01-19T05:34:12.817Z,4.05
2023-01-19T05:36:44.588Z,4.00
2023-01-19T05:39:12.778Z,3.99
2023-01-19T05:41:52.173Z,3.72
2023-01-19T05:44:22.811Z,3.96
2023-01-19T05:47:06.437Z,3.87
2023-01-19T05:49:37.486Z,4.08
2023-01-19T05:52:14.199Z,4.06
2023-01-19T05:59:00.136Z,3.85
2023-01-19T06:01:42.746Z,3.87
2023-01-19T06:07:32.446Z,3.84
2023-01-19T06:10:09.462Z,3.81
2023-01-19T06:12:42.175Z,3.81
2023-01-19T06:15:24.008Z,3.76
2023-01-19T06:17:54.673Z,3.75
2023-01-19T06:20:24.363Z,3.87
2023-01-19T06:22:57.915Z,3.81
2023-01-19T06:25:31.532Z,3.87
2023-01-19T06:28:02.634Z,3.95
2023-01-19T06:30:34.941Z,3.91
2023-01-19T06:33:06.476Z,3.87
2023-01-19T06:35:36.568Z,4.13
2023-01-19T06:38:14.720Z,4.03
2023-01-19T06:40:46.863Z,4.08
2023-01-19T06:43:15.968Z,4.07
2023-01-19T06:45:55.525Z,4.01
2023-01-19T06:48:33.292Z,3.93
2023-01-19T06:51:10.470Z,3.98
2023-01-19T06:53:48.358Z,4.11
2023-01-19T06:56:23.071Z,4.06
2023-01-19T06:58:53.202Z,3.86
2023-01-19T07:01:25.557Z,3.78
2023-01-19T07:04:03.821Z,3.95
2023-01-19T07:06:34.522Z,4.00
2023-01-19T07:09:19.607Z,4.08
2023-01-19T07:11:56.144Z,3.94
2023-01-19T07:14:33.478Z,3.92
2023-01-19T07:17:10.424Z,3.84
2023-01-19T07:19:48.963Z,4.12
2023-01-19T07:22:21.565Z,4.19
2023-01-19T07:24:51.713Z,4.10
2023-01-19T07:27:21.361Z,4.22
2023-01-19T07:29:50.015Z,3.91
2023-01-19T07:32:20.743Z,4.20
2023-01-19T07:34:51.613Z,3.92
2023-01-19T07:37:26.567Z,3.94
2023-01-19T07:40:01.595Z,3.87
2023-01-19T07:42:30.345Z,3.83
2023-01-19T07:45:04.085Z,3.83
2023-01-19T07:47:41.576Z,3.84
2023-01-19T07:50:24.627Z,4.00
2023-01-19T07:52:54.183Z,3.86
2023-01-19T07:55:25.665Z,3.75
2023-01-19T07:57:55.876Z,3.92
2023-01-19T08:00:25.977Z,3.82
2023-01-19T08:03:00.838Z,3.90
2023-01-19T08:05:32.243Z,4.02
2023-01-19T08:08:07.680Z,3.95
2023-01-19T08:10:43.092Z,3.99
2023-01-19T08:13:21.233Z,4.06
2023-01-19T08:48:51.536Z,4.25
2023-01-19T08:51:28.361Z,4.14
2023-01-19T08:53:57.096Z,4.30
2023-01-19T08:56:26.145Z,4.03
2023-01-19T09:03:36.072Z,4.17
2023-01-19T09:06:17.198Z,4.31
2023-01-19T09:08:55.349Z,4.26
2023-01-19T09:11:25.282Z,4.32
2023-01-19T09:13:56.800Z,4.33
2023-01-19T09:16:37.690Z,4.22
2023-01-19T09:19:09.221Z,4.25
2023-01-19T09:21:41.067Z,4.35
2023-01-19T09:24:21.429Z,4.43
2023-01-19T09:26:50.594Z,4.51
2023-01-19T09:29:19.298Z,4.56
2023-01-19T09:31:56.273Z,4.31
2023-01-19T09:34:30.953Z,4.35
2023-01-19T09:37:11.199Z,4.35
2023-01-19T09:39:43.827Z,4.37
2023-01-19T09:42:24.676Z,4.36
2023-01-19T09:44:54.739Z,4.27
2023-01-19T09:47:30.429Z,4.27
2023-01-19T09:50:10.643Z,4.39
2023-01-19T09:52:43.137Z,4.53
2023-01-19T09:55:24.770Z,4.30
2023-01-19T09:57:54.634Z,4.34
2023-01-19T10:00:24.463Z,4.56
2023-01-19T10:02:57.751Z,4.51
2023-01-19T10:05:33.025Z,4.50
2023-01-19T10:08:14.144Z,4.58
2023-01-19T10:10:53.235Z,4.49
2023-01-19T10:13:36.572Z,4.52
2023-01-19T10:16:18.768Z,4.50
2023-01-19T10:18:53.746Z,4.43
2023-01-19T10:21:29.712Z,4.62
2023-01-19T10:24:05.085Z,4.32
2023-01-19T10:26:42.401Z,4.49
2023-01-19T10:29:23.485Z,4.70
2023-01-19T10:31:59.181Z,4.61
2023-01-19T10:34:39.137Z,4.37
2023-01-19T10:37:24.985Z,4.26
2023-01-19T10:39:57.150Z,4.29
2023-01-19T10:42:39.180Z,4.46
2023-01-19T10:45:50.345Z,4.56
2023-01-19T10:48:20.964Z,4.47
2023-01-19T10:51:08.142Z,4.57
2023-01-19T10:53:44.075Z,4.44
2023-01-19T10:56:18.700Z,4.63
2023-01-19T10:58:53.152Z,4.71
2023-01-19T11:01:25.528Z,4.67
2023-01-19T11:03:57.434Z,4.63
2023-01-19T11:06:41.317Z,4.87
2023-01-19T11:09:28.841Z,4.80
2023-01-19T11:12:10.866Z,4.75
2023-01-19T11:15:37.767Z,4.84
2023-01-19T11:18:08.431Z,5.09
2023-01-19T11:20:46.922Z,4.84
2023-01-19T11:23:27.493Z,4.74
2023-01-19T11:26:01.321Z,4.78
2023-01-19T11:28:33.348Z,4.79
2023-01-19T11:31:15.393Z,4.75
2023-01-19T11:34:00.089Z,4.71
2023-01-19T11:36:36.423Z,4.50
2023-01-19T11:39:24.409Z,4.57
2023-01-19T11:41:58.949Z,4.56
2023-01-19T11:44:32.772Z,4.34
2023-01-19T11:47:02.982Z,4.20
2023-01-19T11:49:50.747Z,4.38
2023-01-19T11:52:24.345Z,4.35
2023-01-19T11:55:00.871Z,4.54
2023-01-19T11:57:32.031Z,4.40
2023-01-19T12:00:11.501Z,4.47
2023-01-19T12:02:44.847Z,4.66
2023-01-19T12:05:35.591Z,4.63
2023-01-19T12:08:09.315Z,4.58
2023-01-19T12:10:47.876Z,4.58
2023-01-19T12:13:26.915Z,4.59
2023-01-19T12:15:59.757Z,4.64
2023-01-19T12:18:32.007Z,4.36
2023-01-19T12:21:12.231Z,4.56
2023-01-19T12:23:50.587Z,4.68
2023-01-19T12:26:44.783Z,4.18
2023-01-19T12:29:23.138Z,4.20
2023-01-19T12:32:38.538Z,4.21
2023-01-19T12:35:17.060Z,4.13
2023-01-19T12:37:55.845Z,4.25
2023-01-19T12:40:33.740Z,4.20
2023-01-19T12:43:18.479Z,4.35
2023-01-19T12:45:54.983Z,4.31
2023-01-19T12:48:29.745Z,4.35
2023-01-19T12:51:12.637Z,4.23
2023-01-19T12:53:55.597Z,4.15
2023-01-19T12:56:31.627Z,4.38
2023-01-19T12:59:01.136Z,4.27
2023-01-19T13:01:29.646Z,4.40
2023-01-19T13:04:04.335Z,4.40
2023-01-19T13:07:10.684Z,4.34
2023-01-19T13:09:46.147Z,4.59
2023-01-19T13:12:26.957Z,4.43
2023-01-19T13:15:32.862Z,4.37
2023-01-19T13:18:02.251Z,4.41
2023-01-19T13:20:36.619Z,4.60
2023-01-19T13:23:46.033Z,4.34
2023-01-19T13:26:30.941Z,4.57
2023-01-19T13:29:07.202Z,4.47
2023-01-19T13:31:37.680Z,4.47
2023-01-19T13:34:17.826Z,4.15
2023-01-19T13:36:55.368Z,4.10
2023-01-19T13:39:36.914Z,4.15
2023-01-19T13:42:27.725Z,4.28
2023-01-19T13:45:02.783Z,4.40
2023-01-19T13:47:42.305Z,4.13
2023-01-19T13:50:23.680Z,4.15
2023-01-19T13:52:59.299Z,4.06
2023-01-19T13:55:39.973Z,4.00
2023-01-19T13:58:31.656Z,4.02
2023-01-19T14:01:00.022Z,3.96
2023-01-19T14:03:29.898Z,4.06
2023-01-19T14:06:02.098Z,3.99
2023-01-19T14:08:33.878Z,3.80
2023-01-19T14:11:07.610Z,3.96
2023-01-19T14:13:46.631Z,3.98
2023-01-19T14:16:23.822Z,3.82
2023-01-19T14:19:00.673Z,3.97
2023-01-19T14:21:42.446Z,3.98
2023-01-19T14:24:18.975Z,3.89
2023-01-19T14:26:49.521Z,3.95
2023-01-19T14:29:34.748Z,3.82
2023-01-19T14:32:14.939Z,3.81
2023-01-19T14:34:52.821Z,3.90
2023-01-19T14:37:30.776Z,4.04
2023-01-19T14:40:07.071Z,3.85
2023-01-19T14:42:39.391Z,3.96
2023-01-19T14:45:21.808Z,3.82
2023-01-19T14:47:58.252Z,3.66
2023-01-19T14:50:29.035Z,3.90
2023-01-19T14:53:01.177Z,3.90
2023-01-19T14:55:36.036Z,3.70
2023-01-19T14:58:14.900Z,3.63
2023-01-19T15:00:50.357Z,3.50
2023-01-19T15:03:38.543Z,3.54
2023-01-19T15:06:17.254Z,3.49
2023-01-19T15:08:50.223Z,3.46
2023-01-19T15:11:26.696Z,3.70
2023-01-19T15:13:59.755Z,3.56
2023-01-19T15:16:31.656Z,3.48
2023-01-19T15:19:06.622Z,3.77
2023-01-19T15:21:37.655Z,3.35
2023-01-19T15:24:11.036Z,3.31
2023-01-19T15:26:43.770Z,3.48
2023-01-19T15:29:22.266Z,3.47
2023-01-19T15:31:55.561Z,3.64
2023-01-19T15:34:24.687Z,3.36
2023-01-19T15:36:58.872Z,3.30
2023-01-19T15:39:39.455Z,3.33
2023-01-19T15:42:14.412Z,3.13
2023-01-19T15:44:43.813Z,3.10
2023-01-19T15:47:21.401Z,3.15
2023-01-19T15:49:53.306Z,3.22
2023-01-19T15:52:30.113Z,2.98
2023-01-19T15:55:03.734Z,3.13
2023-01-19T15:57:35.364Z,3.08
2023-01-19T16:00:06.090Z,3.21
2023-01-19T16:02:56.173Z,3.06
2023-01-19T16:05:34.001Z,3.23
2023-01-19T16:08:21.263Z,2.90
2023-01-19T16:10:55.987Z,2.93
2023-01-19T16:13:27.086Z,3.10
2023-01-19T16:15:57.915Z,2.78
2023-01-19T16:18:50.387Z,2.85
2023-01-19T16:21:22.229Z,3.10
2023-01-19T16:23:54.320Z,2.94
2023-01-19T16:26:32.586Z,2.90
2023-01-19T16:29:08.211Z,3.04
2023-01-19T16:31:39.226Z,3.09
2023-01-19T16:34:16.588Z,3.08
2023-01-19T16:36:48.352Z,3.00
2023-01-19T16:39:22.852Z,2.83
2023-01-19T16:45:27.144Z,2.86
2023-01-19T16:48:05.700Z,2.87
2023-01-19T16:50:42.990Z,2.94
2023-01-19T16:53:11.999Z,3.01
2023-01-19T16:55:45.989Z,2.92
2023-01-19T16:58:17.773Z,3.01
2023-01-19T17:04:06.830Z,2.81
2023-01-19T17:06:42.106Z,2.99
2023-01-19T17:09:16.470Z,2.96
2023-01-19T17:11:54.403Z,3.07
2023-01-19T17:14:26.134Z,2.80
2023-01-19T17:16:59.902Z,2.99
2023-01-19T17:19:38.446Z,3.00
2023-01-19T17:22:24.499Z,2.98
2023-01-19T17:25:05.467Z,3.23
2023-01-19T17:27:37.373Z,3.06
2023-01-19T17:30:10.539Z,3.05
2023-01-19T17:32:43.564Z,3.12
2023-01-19T17:35:33.117Z,3.12
2023-01-19T17:38:09.055Z,3.11
2023-01-19T17:40:39.925Z,2.86
2023-01-19T17:43:16.646Z,2.75
2023-01-19T17:45:53.484Z,2.74
2023-01-19T17:48:27.788Z,2.86
2023-01-19T17:51:08.190Z,2.81
2023-01-19T17:53:48.178Z,2.92
2023-01-19T17:56:23.234Z,2.76
2023-01-19T17:58:57.386Z,2.72
2023-01-19T18:01:44.865Z,2.91
2023-01-19T18:04:20.081Z,2.77
2023-01-19T18:06:51.074Z,2.93
2023-01-19T18:09:32.192Z,2.93
2023-01-19T18:12:12.269Z,2.94
2023-01-19T18:14:55.134Z,2.77
2023-01-19T18:17:29.089Z,2.83
2023-01-19T18:20:18.268Z,2.60
2023-01-19T18:22:49.205Z,2.91
2023-01-19T18:25:25.094Z,2.95
2023-01-19T18:27:56.485Z,2.89
2023-01-19T18:30:33.658Z,2.72
2023-01-19T18:33:16.900Z,2.90
2023-01-19T18:36:02.913Z,2.83
2023-01-19T18:38:35.371Z,2.76
2023-01-19T18:41:12.929Z,2.89
2023-01-19T18:43:52.511Z,2.66
2023-01-19T18:46:24.823Z,2.90
2023-01-19T18:48:56.185Z,2.97
2023-01-19T18:51:35.589Z,2.78
2023-01-19T18:54:07.203Z,2.69
2023-01-19T18:56:58.401Z,2.66
2023-01-19T18:59:31.775Z,2.78
2023-01-19T19:02:07.427Z,2.78
2023-01-19T19:04:38.584Z,2.91
2023-01-19T19:07:13.287Z,2.90
2023-01-19T19:09:44.295Z,2.59
2023-01-19T19:12:23.321Z,2.63
2023-01-19T19:14:54.110Z,2.51
2023-01-19T19:17:24.935Z,2.61
2023-01-19T19:20:05.416Z,2.49
2023-01-19T19:22:46.875Z,2.48
2023-01-19T19:25:26.347Z,2.57
2023-01-19T19:28:04.140Z,2.49
2023-01-19T19:30:46.202Z,2.35
2023-01-19T19:33:23.616Z,2.29
2023-01-19T19:36:00.187Z,2.39
2023-01-19T19:38:34.999Z,2.34
2023-01-19T19:41:20.392Z,2.54
2023-01-19T19:44:16.294Z,2.37
2023-01-19T19:47:03.802Z,2.53
2023-01-19T19:49:38.287Z,2.43
2023-01-19T19:52:15.238Z,2.60
2023-01-19T19:54:51.055Z,2.38
2023-01-19T19:57:23.443Z,2.41
2023-01-19T20:00:03.618Z,2.70
2023-01-19T20:02:56.374Z,2.76
2023-01-19T20:05:31.895Z,2.67
2023-01-19T20:08:10.661Z,2.46
2023-01-19T20:10:46.587Z,2.30
2023-01-19T20:13:26.759Z,2.15
2023-01-19T20:16:20.913Z,2.31
2023-01-19T20:18:56.597Z,2.35
2023-01-19T20:21:28.684Z,2.11
2023-01-19T20:24:04.225Z,2.23
2023-01-19T20:26:47.181Z,2.13
2023-01-19T20:29:27.878Z,2.49
2023-01-19T20:32:16.124Z,2.44
2023-01-19T20:35:00.685Z,2.45
2023-01-19T20:37:38.471Z,2.18
2023-01-19T20:40:21.398Z,2.13
2023-01-19T20:42:52.334Z,2.11
2023-01-19T20:45:46.987Z,2.39
2023-01-19T20:48:27.178Z,2.10
2023-01-19T20:51:04.765Z,2.20
2023-01-19T20:53:36.223Z,2.23
2023-01-19T20:56:23.228Z,2.23
2023-01-19T20:59:09.536Z,2.43
2023-01-19T21:01:53.798Z,2.37
2023-01-19T21:04:46.273Z,2.34
2023-01-19T21:07:27.647Z,1.96
2023-01-19T21:10:08.223Z,2.04
2023-01-19T21:12:39.831Z,2.22
2023-01-19T21:15:22.419Z,2.12
2023-01-19T21:18:02.304Z,2.14
2023-01-19T21:20:35.457Z,2.05
2023-01-19T21:23:14.757Z,1.99
2023-01-19T21:25:55.214Z,2.09
2023-01-19T21:28:36.248Z,1.93
2023-01-19T21:31:16.432Z,1.94
2023-01-19T21:33:55.269Z,1.87
2023-01-19T21:36:28.313Z,2.13
2023-01-19T21:39:02.900Z,1.94
2023-01-19T21:41:35.988Z,2.28
2023-01-19T21:44:10.016Z,2.07
2023-01-19T21:46:44.997Z,2.24
2023-01-19T21:49:21.573Z,2.23
2023-01-19T21:51:57.759Z,2.15
2023-01-19T21:54:31.670Z,1.83
2023-01-19T21:57:15.273Z,1.95
2023-01-19T21:59:49.335Z,1.78
2023-01-19T22:02:37.389Z,1.93
2023-01-19T22:05:09.581Z,1.89
2023-01-19T22:07:45.037Z,1.84
2023-01-19T22:10:19.968Z,1.77
2023-01-19T22:12:55.072Z,1.74
2023-01-19T22:15:25.633Z,1.85
2023-01-19T22:17:58.247Z,1.98
2023-01-19T22:20:29.012Z,2.11
2023-01-19T22:23:12.930Z,1.92
2023-01-19T22:25:45.599Z,1.58
2023-01-19T22:28:19.022Z,1.79
2023-01-19T22:31:00.096Z,1.56
2023-01-19T22:33:42.376Z,1.90
2023-01-19T22:36:20.054Z,1.83
2023-01-19T22:39:00.524Z,1.79
2023-01-19T22:41:33.899Z,1.93
2023-01-19T22:44:12.021Z,1.94
2023-01-19T22:46:49.146Z,1.79
2023-01-19T22:49:25.490Z,1.83
2023-01-19T22:51:59.711Z,1.94
2023-01-19T22:54:37.386Z,1.80
2023-01-19T22:57:13.281Z,2.09
2023-01-19T22:59:44.207Z,2.17
2023-01-19T23:02:16.129Z,2.09
2023-01-19T23:04:47.777Z,1.73
2023-01-19T23:07:21.989Z,1.83
2023-01-19T23:09:57.916Z,1.96
2023-01-19T23:12:32.045Z,1.99
2023-01-19T23:15:07.174Z,1.72
2023-01-19T23:17:39.116Z,1.59
2023-01-19T23:20:20.383Z,1.73
2023-01-19T23:25:55.149Z,1.68
2023-01-19T23:28:32.304Z,1.83
2023-01-19T23:31:17.551Z,1.86
2023-01-19T23:33:46.545Z,1.62
2023-01-19T23:36:16.167Z,1.89
2023-01-19T23:38:57.808Z,1.92
2023-01-19T23:41:37.528Z,1.97
2023-01-19T23:44:06.808Z,2.02
2023-01-19T23:46:36.943Z,1.78
2023-01-19T23:49:09.234Z,1.78
2023-01-19T23:51:40.814Z,1.74
2023-01-19T23:54:16.771Z,1.80
2023-01-19T23:56:51.769Z,1.72
2023-01-19T23:59:28.885Z,1.78
